createdAt,value
2023-03-06T00:06:33.515Z,-1.65
2023-03-06T00:21:36.550Z,-1.89
2023-03-06T00:36:39.443Z,-2.05
2023-03-06T00:51:42.207Z,-2.16
2023-03-06T01:22:02.643Z,-1.95
2023-03-06T01:37:05.440Z,-1.82
2023-03-06T01:52:14.893Z,-1.61
2023-03-06T02:07:21.456Z,-1.46
2023-03-06T02:22:34.846Z,-1.60
2023-03-06T02:37:37.773Z,-1.78
2023-03-06T02:52:40.655Z,-1.81
2023-03-06T03:07:43.888Z,-1.65
2023-03-06T03:22:53.756Z,-1.49
2023-03-06T03:37:56.881Z,-1.24
2023-03-06T03:52:59.846Z,-1.12
2023-03-06T04:08:03.142Z,-1.10
2023-03-06T04:23:06.118Z,-0.93
2023-03-06T04:38:09.087Z,-0.76
2023-03-06T04:53:13.947Z,-0.65
2023-03-06T05:08:18.018Z,-0.50
2023-03-06T05:23:38.067Z,-0.44
2023-03-06T05:38:40.554Z,-0.49
2023-03-06T05:53:43.599Z,-0.40
2023-03-06T06:08:46.728Z,-0.30
2023-03-06T06:24:04.137Z,-0.03
2023-03-06T06:39:08.587Z,0.25
2023-03-06T06:54:12.202Z,0.36
2023-03-06T07:09:15.008Z,0.52
2023-03-06T07:24:17.596Z,0.96
2023-03-06T07:39:20.281Z,0.88
2023-03-06T07:54:22.754Z,0.63
2023-03-06T08:09:40.336Z,0.70
2023-03-06T08:24:42.838Z,0.86
2023-03-06T08:39:45.350Z,1.29
2023-03-06T08:54:48.054Z,1.51
2023-03-06T09:09:51.115Z,1.52
2023-03-06T09:24:53.924Z,1.45
2023-03-06T09:39:57.558Z,1.40
2023-03-06T09:55:20.136Z,1.47
2023-03-06T10:11:02.338Z,1.70
2023-03-06T10:26:22.093Z,1.67
2023-03-06T10:41:32.361Z,2.05
2023-03-06T10:56:40.475Z,2.20
2023-03-06T11:12:21.876Z,2.05
2023-03-06T11:27:37.826Z,2.39
2023-03-06T11:42:59.044Z,2.24
2023-03-06T11:58:53.694Z,2.31
2023-03-06T12:14:18.220Z,2.68
2023-03-06T12:29:55.252Z,2.66
2023-03-06T12:45:30.578Z,2.47
2023-03-06T13:00:36.798Z,2.46
2023-03-06T13:15:46.556Z,2.68
2023-03-06T13:30:50.915Z,2.69
2023-03-06T13:45:55.272Z,2.56
2023-03-06T14:01:27.564Z,2.74
2023-03-06T14:16:49.499Z,2.58
2023-03-06T14:32:00.290Z,2.27
2023-03-06T14:47:32.626Z,2.27
2023-03-06T15:02:35.807Z,2.31
2023-03-06T15:17:53.132Z,1.89
2023-03-06T15:33:26.148Z,1.55
2023-03-06T15:48:28.950Z,1.47
2023-03-06T16:03:46.401Z,1.42
2023-03-06T16:18:49.242Z,1.69
2023-03-06T16:33:51.962Z,1.84
2023-03-06T16:48:55.257Z,1.63
2023-03-06T17:04:12.499Z,1.27
2023-03-06T17:19:15.496Z,1.00
2023-03-06T17:34:19.250Z,0.88
2023-03-06T17:49:24.571Z,1.08
2023-03-06T18:04:27.495Z,0.83
2023-03-06T18:19:30.416Z,0.46
2023-03-06T18:34:33.388Z,0.15
2023-03-06T18:49:39.851Z,-0.15
2023-03-06T19:04:52.413Z,-0.30
2023-03-06T19:20:40.465Z,-0.16
2023-03-06T19:35:43.625Z,-0.26
2023-03-06T19:50:47.985Z,-0.66
2023-03-06T20:05:51.646Z,-0.93
2023-03-06T20:21:00.098Z,-1.14
2023-03-06T20:36:03.492Z,-1.25
2023-03-06T20:51:19.842Z,-0.98
2023-03-06T21:06:23.696Z,-1.01
2023-03-06T21:21:31.608Z,-1.28
2023-03-06T21:36:35.117Z,-1.57
2023-03-06T21:51:38.407Z,-1.81
2023-03-06T22:06:41.371Z,-2.01
2023-03-06T22:21:44.069Z,-2.22
2023-03-06T22:37:02.068Z,-2.25
2023-03-06T22:52:19.662Z,-2.37
2023-03-06T23:07:23.006Z,-2.56
2023-03-06T23:22:26.070Z,-2.76
2023-03-06T23:37:28.579Z,-2.45
2023-03-06T23:52:45.903Z,-2.22
